Hastings Natural History Reservation, California Weather observations

Data are for 10 minute period ending at time listed.
 Day   Time   Solar   Ave.   Ave.  Ave.  Vector  Max.   Baro.   Total    
  of    of     Rad.   Air    Rel.  Wind   Wind   Wind  Press.  Precip.   
Year   Day            Temp.  Hum.  Speed  Dir.   Gust                    
2014   (PST)  Kw/m2    F      %     mph   deg.    mph    mb.     in.     
-------------------------------------------------------------------------
 273   12:30   0.71   74.1    42    2.5   279     7.2   950.0    0.00 
 273   12:40   0.70   74.3    44    4.1   258    12.1   949.9    0.00 
 273   12:50   0.70   72.8    50    4.5   269    12.9   949.9    0.00 
 273   13:00   0.70   73.7    50    4.0   260    10.7   949.9    0.00 
 273   13:10   0.68   72.1    53    5.2   252    11.2   950.0    0.00 
 273   13:20   0.69   71.7    54    4.7   254    12.1   949.9    0.00 
 273   13:30   0.67   70.5    56    6.5   250    12.9   949.9    0.00 
 273   13:40   0.66   70.4    56    5.9   251    12.3   949.7    0.00 
 273   13:50   0.66   71.2    54    3.4   261     8.3   949.6    0.00 
 273   14:00   0.67   71.9    53    4.2   261    11.5   949.4    0.00 
 273   14:10   0.66   71.6    53    4.8   257    11.2   949.5    0.00 
 273   14:20   0.66   71.0    54    4.0   265    11.5   949.5    0.00 
 273   14:30   0.67   70.8    54    4.1   256    12.1   949.4    0.00 
 273   14:40   0.63   70.9    53    3.6   260    10.2   949.3    0.00 
 273   14:50   0.62   71.6    52    3.1   272     8.7   949.2    0.00 
 273   15:00   0.61   71.9    52    2.4   272     7.6   949.2    0.00 
 273   15:10   0.61   71.7    52    3.7   260     8.3   949.1    0.00 
 273   15:20   0.56   71.1    52    2.6   276     8.9   949.1    0.00 
 273   15:30   0.52   72.5    50    3.0   260     9.3   949.0    0.00 
 273   15:40   0.48   72.1    50    2.6   265    10.4   948.9    0.00 
 273   15:50   0.51   72.2    50    3.5   260     8.7   948.8    0.00 
 273   16:00   0.43   72.1    50    3.2   257    11.1   948.7    0.00 
 273   16:10   0.37   72.4    49    2.7   254     6.9   948.6    0.00 
 273   16:20   0.39   73.0    48    3.8   252     9.1   948.5    0.00 
 273   16:30   0.36   72.3    49    2.8   269     8.0   948.5    0.00 
 273   16:40   0.38   73.2    49    2.1   264     6.4   948.6    0.00 
 273   16:50   0.38   72.0    51    3.2   256    10.7   948.6    0.00 
 273   17:00   0.34   71.6    52    3.2   267     9.9   948.5    0.00 
 273   17:10   0.34   70.7    53    3.2   259     7.9   948.3    0.00 
 273   17:20   0.30   70.9    53    3.0   261     7.0   948.2    0.00 
 273   17:30   0.27   70.3    53    3.4   259     7.8   948.1    0.00 
 273   17:40   0.24   69.8    53    2.9   285     7.4   948.0    0.00 
 273   17:50   0.20   70.3    53    1.6   339     5.7   947.9    0.00 
 273   18:00   0.17   69.9    53    2.1   271     5.3   947.8    0.00 
 273   18:10   0.14   69.4    53    1.6   276     6.1   947.8    0.00 
 273   18:20   0.10   68.5    54    2.8   252     6.4   947.7    0.00 
 273   18:30   0.02   66.4    59    3.1   243     6.1   947.6    0.00 
 273   18:40   0.01   64.1    65    3.9   235     6.6   947.7    0.00 
 273   18:50   0.00   62.4    68    2.6   231     6.6   947.9    0.00 
 273   19:00   0.00   61.2    69    1.7   250     5.7   948.0    0.00 
 273   19:10   0.00   60.1    70    2.3   230     5.7   948.3    0.00 
 273   19:20   0.00   59.3    71    1.8   230     4.7   948.4    0.00 
 273   19:30   0.00   58.5    72    0.5   196     2.3   948.5    0.00 
 273   19:40   0.00   57.6    74    0.1    45     0.7   948.5    0.00 
 273   19:50   0.00   56.3    75    0.8    46     1.5   948.6    0.00 
 273   20:00   0.00   55.3    76    0.0     0     0.0   948.8    0.00 
 273   20:10   0.00   54.6    78    1.2    64     3.9   948.8    0.00 
 273   20:20   0.00   54.3    76    0.5    61     2.9   948.8    0.00 
 273   20:30   0.00   53.6    76    0.6    90     2.8   948.9    0.00 
 273   20:40   0.00   52.7    77    0.9    78     3.1   948.9    0.00 
 273   20:50   0.00   52.2    76    0.1    76     1.8   949.0    0.00 
 273   21:00   0.00   52.5    73    2.3    93     4.7   949.0    0.00 
 273   21:10   0.00   52.5    72    1.2    85     4.1   949.0    0.00 
 273   21:20   0.00   52.9    70    1.3    92     4.5   949.0    0.00 
 273   21:30   0.00   51.2    75    0.5   190     2.9   949.0    0.00 
 273   21:40   0.00   50.1    79    0.2   271     1.7   949.0    0.00 
 273   21:50   0.00   49.6    80    0.1   250     1.1   949.0    0.00 
 273   22:00   0.00   49.3    80    0.1    36     0.9   948.9    0.00 
 273   22:10   0.00   49.1    78    0.2    51     1.1   948.8    0.00 
 273   22:20   0.00   48.9    77    0.2    52     1.3   948.8    0.00 
 273   22:30   0.00   48.6    79    0.5    92     1.6   948.8    0.00 
 273   22:40   0.00   48.4    80    0.7    66     2.5   948.7    0.00 
 273   22:50   0.00   48.3    81    0.3    28     1.2   948.7    0.00 
 273   23:00   0.00   48.1    81    0.0    79     1.2   948.7    0.00 
 273   23:10   0.00   48.0    82    0.3    78     1.2   948.7    0.00 
 273   23:20   0.00   47.9    83    0.1    85     0.7   948.6    0.00 
 273   23:30   0.00   47.6    83    0.3   239     1.5   948.6    0.00 
 273   23:40   0.00   47.2    84    0.2    50     1.2   948.6    0.00 
 273   23:50   0.00   47.2    85    0.2    49     1.4   948.6    0.00 
 274    0:00   0.00   47.1    85    0.6    63     1.5   948.7    0.00 
 274    0:10   0.00   47.2    85    0.3    69     1.3   948.6    0.00 
 274    0:20   0.00   47.2    85    0.7    61     1.8   948.6    0.00 
 274    0:30   0.00   47.1    84    0.3    46     1.5   948.6    0.00 
 274    0:40   0.00   46.7    84    0.2    24     1.3   948.6    0.00 
 274    0:50   0.00   46.6    85    0.8    57     2.0   948.6    0.00 
 274    1:00   0.00   46.7    85    0.8    59     2.3   948.5    0.00 
 274    1:10   0.00   46.5    85    0.2   245     0.9   948.6    0.00 
 274    1:20   0.00   46.1    86    0.2   240     1.5   948.6    0.00 
 274    1:30   0.00   45.9    87    0.2    54     2.0   948.6    0.00 
 274    1:40   0.00   45.9    88    0.5    56     1.7   948.7    0.00 
 274    1:50   0.00   46.1    87    0.7    59     1.8   948.7    0.00 
 274    2:00   0.00   46.2    86    0.5    61     2.0   948.7    0.00 
 274    2:10   0.00   46.3    85    0.4    42     1.7   948.7    0.00 
 274    2:20   0.00   46.2    86    0.3   217     1.8   948.7    0.00 
 274    2:30   0.00   45.8    87    0.4   237     1.7   948.7    0.00 
 274    2:40   0.00   45.8    88    0.5   245     2.2   948.7    0.00 
 274    2:50   0.00   45.8    88    0.9   129     3.7   948.7    0.00 
 274    3:00   0.00   45.8    89    0.9    73     4.1   948.6    0.00 
 274    3:10   0.00   46.2    89    1.2    85     3.3   948.5    0.00 
 274    3:20   0.00   47.1    91    2.3    79     5.3   948.4    0.00 
 274    3:30   0.00   47.8    85    1.0   104     5.0   948.4    0.00 
 274    3:40   0.00   47.1    86    1.6    95     5.0   948.4    0.00 
 274    3:50   0.00   47.6    87    2.7    88     5.9   948.3    0.00 
 274    4:00   0.00   48.4    85    1.5    87     4.8   948.4    0.00 
 274    4:10   0.00   49.2    86    2.2    80     4.5   948.4    0.00 
 274    4:20   0.00   48.6    83    1.0    92     3.4   948.4    0.00 
 274    4:30   0.00   52.6    82    3.2    78     5.4   948.4    0.00 
 274    4:40   0.00   53.1    76    1.7    70     4.3   948.4    0.00 
 274    4:50   0.00   52.1    82    2.1    81     5.0   948.4    0.00 
 274    5:00   0.00   54.8    74    3.2    71     8.0   948.4    0.00 
 274    5:10   0.00   53.9    75    2.9    74     5.5   948.5    0.00 
 274    5:20   0.00   51.8    78    1.8    74     4.2   948.6    0.00 
 274    5:30   0.00   50.2    82    1.4    88     4.7   948.6    0.00 
 274    5:40   0.00   48.5    86    0.5    77     3.1   948.7    0.00 
 274    5:50   0.00   49.0    88    1.6    87     4.4   948.7    0.00 
 274    6:00   0.00   50.3    82    1.6    84     4.7   948.7    0.00 
 274    6:10   0.00   48.4    85    0.2   110     1.5   948.9    0.00 
 274    6:20   0.00   47.6    88    0.3    81     1.8   949.0    0.00 
 274    6:30   0.00   47.5    90    0.9    86     2.9   949.0    0.00 
 274    6:40   0.00   47.4    90    1.0    79     3.6   949.0    0.00 
 274    6:50   0.00   46.9    90    1.2    91     4.0   949.0    0.00 
 274    7:00   0.00   46.5    91    1.5    76     3.9   949.1    0.00 
 274    7:10   0.00   47.5    90    1.5    74     3.1   949.2    0.00 
 274    7:20   0.00   47.3    88    0.7    60     2.5   949.2    0.00 
 274    7:30   0.00   47.1    90    0.6    62     2.5   949.2    0.00 
 274    7:40   0.01   47.6    89    0.6    83     1.8   949.3    0.00 
 274    7:50   0.01   47.8    88    0.7    71     2.9   949.3    0.00 
 274    8:00   0.01   48.8    86    1.4    85     3.1   949.3    0.00 
 274    8:10   0.01   49.4    82    1.4    65     4.2   949.3    0.00 
 274    8:20   0.01   49.7    82    0.8   251     1.9   949.4    0.00 
 274    8:30   0.01   50.8    80    0.2   208     1.2   949.4    0.00 
 274    8:40   0.01   52.3    74    0.1    93     0.7   949.5    0.00 
 274    8:50   0.02   54.3    70    0.4   199     1.5   949.7    0.00 
 274    9:00   0.03   56.6    65    0.7   145     2.1   949.8    0.00 
 274    9:10   0.23   58.6    60    0.4   112     1.8   949.9    0.00 
 274    9:20   0.31   61.6    55    0.4   115     1.4   950.0    0.00 
 274    9:30   0.34   64.6    49    0.8    81     1.8   950.1    0.00 
 274    9:40   0.37   66.5    47    1.0    71     3.1   950.2    0.00 
 274    9:50   0.40   67.7    45    2.2    13     5.1   950.0    0.00 
 274   10:00   0.38   69.7    42    1.7   292     5.7   950.0    0.00 
 274   10:10   0.10   69.3    43    2.1   264     5.7   949.9    0.00 
 274   10:20   0.05   68.7    44    4.6   237     7.6   949.7    0.00 
 274   10:30   0.07   68.6    44    3.5   238     7.7   949.7    0.00 
 274   10:40   0.07   70.1    40    1.9   326     6.9   949.6    0.00 
 274   10:50   0.13   71.9    38    2.1   307     6.0   949.6    0.00 
 274   11:00   0.48   71.9    38    2.9   307     7.2   949.6    0.00 
 274   11:10   0.61   72.2    37    3.1   248     8.5   949.6    0.00 
 274   11:20   0.60   72.8    36    2.5   251     6.1   949.5    0.00 
 274   11:30   0.66   74.1    36    3.5   235     6.0   949.4    0.00 
 274   11:40   0.67   75.0    34    3.4   222     7.6   949.3    0.00 
 274   11:50   0.69   76.8    31    2.2   234     6.8   949.1    0.00 
 274   12:00   0.68   78.7    27    4.0   276     9.9   949.2    0.00 
 274   12:10   0.71   80.8    21    4.0    40    14.3   949.3    0.00 
 274   12:20   0.72   80.4    21    5.2    57    11.1   949.5    0.00 

Return to Hastings Natural History Reservation graphs page.


Western Regional Climate Center,wrcc@dri.edu